Aérodrome :
LOGIN :

S'inscrire | Disclaimer

   EN    FR    IT 

 










Légende :    VFR   VFR Marginal   IFR   IFR Intensif   IFR Très Intensif
Visi : 
Plafond : 
>= 8 km
>= 3000ft
5 à 8 km
1000 à 3000 ft
1500m à 5 km
500 à 1000 ft
800 à 1500m
200 à 500 ft
< 800m
< 200 ft
Symboles :   Orages  Brouillard  Fortes neiges  Fortes précipitations  Vent > 20 kt
SIGMETs :   Divers  Orages  Givrage  Turbulence  Onde Orograph.  Cendres Volcan.






- Altitude de l'aérodrome : 39 ft
- Code IATA : SUF


LICA - Lamezia Terme

DERNIER METAR :
  • 050550Z AUTO 04012KT 9999 BKN077/// 20/19 Q1007

METARs EXPIRÉS :
  • 050520Z AUTO 04010KT 9999 -RA FEW080/// BKN110/// 19/18 Q1007
  • 050450Z AUTO 07010KT 030V100 9999 BKN110/// 19/18 Q1006
  • 050350Z AUTO 12006KT 9999 -RA BKN077/// 18/18 Q1007 RERA
  • 050320Z AUTO 11004KT 060V120 8000 -RA OVC090/// 19/18 Q1009 REDZ

TAF TAF LICA
Valide du 05 à 06h jusqu'au 06 à 06h UTC


050500Z 0506/0606 08014KT 9999 SCT020
TEMPO 0506/0512 4000 RA
BECMG 0510/0512 28012KT
TEMPO 0512/0515 TSRA



MET'MAP, la Météo Aéronautique d'un coup d'oeil ! - Copyright ORBIFLY Décembre 2007 - Disclaimer

ORBIFLY MET'MAP TEAM :

Programmation & Développement : Alexandra Zaïnal
Sur une idée originale de : Baudouin d'Aumeries
Assistance à la programmation : Marc-Olivier Méhu
Soutien technique & logistique : Manuel Goepfert

Contact : metmap@orbifly.com




SOURCES & CREDITS :

   NOAA